sensor_id;sensor_type;location;lat;lon;timestamp;P1;durP1;ratioP1;P2;durP2;ratioP2
691;SDS011;328;50.086;8.576;2023-04-25T00:02:02;7.57;;;5.53;;
691;SDS011;328;50.086;8.576;2023-04-25T00:04:30;5.27;;;4.77;;
691;SDS011;328;50.086;8.576;2023-04-25T00:07:00;6.03;;;5.43;;
691;SDS011;328;50.086;8.576;2023-04-25T00:09:28;5.70;;;5.10;;
691;SDS011;328;50.086;8.576;2023-04-25T00:11:56;6.80;;;4.67;;
691;SDS011;328;50.086;8.576;2023-04-25T00:14:23;5.00;;;4.33;;
691;SDS011;328;50.086;8.576;2023-04-25T00:16:51;5.77;;;3.70;;
691;SDS011;328;50.086;8.576;2023-04-25T00:19:19;6.13;;;4.40;;
691;SDS011;328;50.086;8.576;2023-04-25T00:21:47;5.27;;;3.50;;
691;SDS011;328;50.086;8.576;2023-04-25T00:24:16;5.33;;;4.17;;
691;SDS011;328;50.086;8.576;2023-04-25T00:26:44;4.63;;;3.43;;
691;SDS011;328;50.086;8.576;2023-04-25T00:29:11;3.40;;;3.03;;
691;SDS011;328;50.086;8.576;2023-04-25T00:31:38;3.90;;;2.70;;
691;SDS011;328;50.086;8.576;2023-04-25T00:34:06;5.63;;;3.50;;
691;SDS011;328;50.086;8.576;2023-04-25T00:36:34;3.70;;;2.90;;
691;SDS011;328;50.086;8.576;2023-04-25T00:39:02;3.17;;;2.60;;
691;SDS011;328;50.086;8.576;2023-04-25T00:41:32;4.93;;;3.30;;
691;SDS011;328;50.086;8.576;2023-04-25T00:43:59;4.30;;;3.60;;
691;SDS011;328;50.086;8.576;2023-04-25T00:46:27;4.93;;;4.17;;
691;SDS011;328;50.086;8.576;2023-04-25T00:48:55;5.30;;;4.13;;
691;SDS011;328;50.086;8.576;2023-04-25T00:51:23;4.27;;;3.40;;
691;SDS011;328;50.086;8.576;2023-04-25T00:53:51;5.10;;;3.77;;
691;SDS011;328;50.086;8.576;2023-04-25T00:56:19;4.03;;;3.63;;
691;SDS011;328;50.086;8.576;2023-04-25T00:58:48;6.90;;;4.00;;
691;SDS011;328;50.086;8.576;2023-04-25T01:01:17;8.63;;;5.10;;
691;SDS011;328;50.086;8.576;2023-04-25T01:03:44;5.97;;;4.60;;
691;SDS011;328;50.086;8.576;2023-04-25T01:06:13;5.20;;;4.50;;
691;SDS011;328;50.086;8.576;2023-04-25T01:08:41;5.63;;;4.20;;
691;SDS011;328;50.086;8.576;2023-04-25T01:11:08;6.03;;;4.73;;
691;SDS011;328;50.086;8.576;2023-04-25T01:13:36;6.10;;;4.50;;
691;SDS011;328;50.086;8.576;2023-04-25T01:16:05;4.07;;;3.67;;
691;SDS011;328;50.086;8.576;2023-04-25T01:18:33;5.43;;;3.80;;
691;SDS011;328;50.086;8.576;2023-04-25T01:21:08;4.10;;;3.60;;
691;SDS011;328;50.086;8.576;2023-04-25T01:23:36;3.87;;;3.47;;
691;SDS011;328;50.086;8.576;2023-04-25T01:26:03;4.50;;;3.90;;
691;SDS011;328;50.086;8.576;2023-04-25T01:28:31;5.27;;;4.10;;
691;SDS011;328;50.086;8.576;2023-04-25T01:31:00;5.63;;;4.03;;
691;SDS011;328;50.086;8.576;2023-04-25T01:33:28;8.10;;;5.13;;
691;SDS011;328;50.086;8.576;2023-04-25T01:35:56;4.60;;;3.87;;
691;SDS011;328;50.086;8.576;2023-04-25T01:38:25;4.70;;;4.20;;
691;SDS011;328;50.086;8.576;2023-04-25T01:40:52;5.17;;;4.00;;
691;SDS011;328;50.086;8.576;2023-04-25T01:43:21;5.37;;;4.30;;
691;SDS011;328;50.086;8.576;2023-04-25T01:45:48;5.40;;;4.20;;
691;SDS011;328;50.086;8.576;2023-04-25T01:48:17;6.10;;;4.50;;
691;SDS011;328;50.086;8.576;2023-04-25T01:50:45;5.93;;;4.90;;
691;SDS011;328;50.086;8.576;2023-04-25T01:53:13;5.37;;;4.60;;
691;SDS011;328;50.086;8.576;2023-04-25T01:55:42;6.37;;;5.03;;
691;SDS011;328;50.086;8.576;2023-04-25T01:58:10;5.97;;;5.23;;
691;SDS011;328;50.086;8.576;2023-04-25T02:00:39;5.63;;;4.77;;
691;SDS011;328;50.086;8.576;2023-04-25T02:03:07;6.13;;;5.27;;
691;SDS011;328;50.086;8.576;2023-04-25T02:05:35;5.73;;;4.90;;
691;SDS011;328;50.086;8.576;2023-04-25T02:08:04;6.23;;;4.83;;
691;SDS011;328;50.086;8.576;2023-04-25T02:10:32;6.70;;;5.27;;
691;SDS011;328;50.086;8.576;2023-04-25T02:13:01;5.40;;;4.60;;
691;SDS011;328;50.086;8.576;2023-04-25T02:15:29;5.30;;;4.43;;
691;SDS011;328;50.086;8.576;2023-04-25T02:17:56;9.60;;;5.30;;
691;SDS011;328;50.086;8.576;2023-04-25T02:20:26;6.60;;;4.60;;
691;SDS011;328;50.086;8.576;2023-04-25T02:22:54;5.90;;;4.90;;
691;SDS011;328;50.086;8.576;2023-04-25T02:25:22;7.07;;;5.00;;
691;SDS011;328;50.086;8.576;2023-04-25T02:27:50;6.60;;;5.00;;
691;SDS011;328;50.086;8.576;2023-04-25T02:30:18;5.63;;;4.63;;
691;SDS011;328;50.086;8.576;2023-04-25T02:32:46;5.77;;;4.90;;
691;SDS011;328;50.086;8.576;2023-04-25T02:35:14;6.23;;;5.27;;
691;SDS011;328;50.086;8.576;2023-04-25T02:37:41;6.43;;;4.80;;
691;SDS011;328;50.086;8.576;2023-04-25T02:40:09;6.23;;;5.10;;
691;SDS011;328;50.086;8.576;2023-04-25T02:42:37;6.90;;;5.53;;
691;SDS011;328;50.086;8.576;2023-04-25T02:45:05;5.20;;;4.70;;
691;SDS011;328;50.086;8.576;2023-04-25T02:47:34;6.47;;;5.53;;
691;SDS011;328;50.086;8.576;2023-04-25T02:50:02;6.03;;;4.70;;
691;SDS011;328;50.086;8.576;2023-04-25T02:52:30;7.53;;;6.03;;
691;SDS011;328;50.086;8.576;2023-04-25T02:54:57;10.30;;;6.17;;
691;SDS011;328;50.086;8.576;2023-04-25T02:57:25;7.23;;;6.23;;
691;SDS011;328;50.086;8.576;2023-04-25T02:59:52;11.00;;;6.30;;
691;SDS011;328;50.086;8.576;2023-04-25T03:02:19;10.77;;;6.30;;
691;SDS011;328;50.086;8.576;2023-04-25T03:04:48;11.80;;;7.53;;
691;SDS011;328;50.086;8.576;2023-04-25T03:07:16;11.30;;;6.63;;
691;SDS011;328;50.086;8.576;2023-04-25T03:09:43;7.77;;;5.83;;
691;SDS011;328;50.086;8.576;2023-04-25T03:12:11;7.90;;;5.33;;
691;SDS011;328;50.086;8.576;2023-04-25T03:14:38;7.73;;;5.60;;
691;SDS011;328;50.086;8.576;2023-04-25T03:17:06;11.77;;;7.60;;
691;SDS011;328;50.086;8.576;2023-04-25T03:19:33;8.47;;;6.17;;
691;SDS011;328;50.086;8.576;2023-04-25T03:22:02;9.23;;;6.40;;
691;SDS011;328;50.086;8.576;2023-04-25T03:24:29;7.60;;;5.80;;
691;SDS011;328;50.086;8.576;2023-04-25T03:26:57;10.17;;;4.97;;
691;SDS011;328;50.086;8.576;2023-04-25T03:29:24;6.13;;;5.20;;
691;SDS011;328;50.086;8.576;2023-04-25T03:31:53;8.03;;;5.60;;
691;SDS011;328;50.086;8.576;2023-04-25T03:34:21;13.57;;;5.00;;
691;SDS011;328;50.086;8.576;2023-04-25T03:36:50;11.43;;;5.60;;
691;SDS011;328;50.086;8.576;2023-04-25T03:39:18;8.80;;;5.93;;
691;SDS011;328;50.086;8.576;2023-04-25T03:41:46;6.83;;;6.10;;
691;SDS011;328;50.086;8.576;2023-04-25T03:44:13;8.53;;;5.40;;
691;SDS011;328;50.086;8.576;2023-04-25T03:46:41;7.33;;;5.17;;
691;SDS011;328;50.086;8.576;2023-04-25T03:49:08;8.47;;;4.83;;
691;SDS011;328;50.086;8.576;2023-04-25T03:51:36;7.40;;;5.50;;
691;SDS011;328;50.086;8.576;2023-04-25T03:54:03;10.60;;;5.80;;
691;SDS011;328;50.086;8.576;2023-04-25T03:56:32;7.60;;;5.60;;
691;SDS011;328;50.086;8.576;2023-04-25T03:59:00;11.80;;;6.53;;
691;SDS011;328;50.086;8.576;2023-04-25T04:01:27;11.10;;;5.83;;
691;SDS011;328;50.086;8.576;2023-04-25T04:03:55;8.47;;;5.53;;
691;SDS011;328;50.086;8.576;2023-04-25T04:06:23;9.37;;;6.03;;
691;SDS011;328;50.086;8.576;2023-04-25T04:08:51;7.53;;;5.23;;
691;SDS011;328;50.086;8.576;2023-04-25T04:11:19;7.50;;;5.77;;
691;SDS011;328;50.086;8.576;2023-04-25T04:13:47;9.60;;;6.00;;
691;SDS011;328;50.086;8.576;2023-04-25T04:16:15;15.23;;;5.97;;
691;SDS011;328;50.086;8.576;2023-04-25T04:18:43;10.43;;;6.20;;
691;SDS011;328;50.086;8.576;2023-04-25T04:21:11;11.63;;;5.73;;
691;SDS011;328;50.086;8.576;2023-04-25T04:23:39;10.27;;;5.73;;
691;SDS011;328;50.086;8.576;2023-04-25T04:26:07;8.23;;;5.53;;
691;SDS011;328;50.086;8.576;2023-04-25T04:28:34;11.17;;;7.60;;
691;SDS011;328;50.086;8.576;2023-04-25T04:31:03;9.77;;;6.57;;
691;SDS011;328;50.086;8.576;2023-04-25T04:33:31;14.20;;;7.20;;
691;SDS011;328;50.086;8.576;2023-04-25T04:35:58;8.37;;;5.60;;
691;SDS011;328;50.086;8.576;2023-04-25T04:38:26;9.90;;;6.50;;
691;SDS011;328;50.086;8.576;2023-04-25T04:40:54;10.80;;;5.90;;
691;SDS011;328;50.086;8.576;2023-04-25T04:43:22;10.00;;;6.47;;
691;SDS011;328;50.086;8.576;2023-04-25T04:45:50;8.80;;;5.53;;
691;SDS011;328;50.086;8.576;2023-04-25T04:48:19;11.70;;;6.03;;
691;SDS011;328;50.086;8.576;2023-04-25T04:50:47;10.00;;;6.60;;
691;SDS011;328;50.086;8.576;2023-04-25T04:53:14;11.80;;;6.77;;
691;SDS011;328;50.086;8.576;2023-04-25T04:55:42;7.63;;;6.00;;
691;SDS011;328;50.086;8.576;2023-04-25T04:58:09;9.90;;;6.90;;
691;SDS011;328;50.086;8.576;2023-04-25T05:00:37;9.53;;;6.67;;
691;SDS011;328;50.086;8.576;2023-04-25T05:03:04;11.20;;;6.20;;
691;SDS011;328;50.086;8.576;2023-04-25T05:05:34;8.70;;;5.33;;
691;SDS011;328;50.086;8.576;2023-04-25T05:08:01;10.17;;;6.40;;
691;SDS011;328;50.086;8.576;2023-04-25T05:10:29;8.17;;;6.53;;
691;SDS011;328;50.086;8.576;2023-04-25T05:12:56;12.97;;;7.70;;
691;SDS011;328;50.086;8.576;2023-04-25T05:15:24;7.30;;;4.77;;
691;SDS011;328;50.086;8.576;2023-04-25T05:17:51;6.87;;;5.63;;
691;SDS011;328;50.086;8.576;2023-04-25T05:20:19;6.57;;;4.90;;
691;SDS011;328;50.086;8.576;2023-04-25T05:22:48;10.03;;;5.70;;
691;SDS011;328;50.086;8.576;2023-04-25T05:25:15;9.13;;;5.20;;
691;SDS011;328;50.086;8.576;2023-04-25T05:27:43;10.97;;;6.27;;
691;SDS011;328;50.086;8.576;2023-04-25T05:30:10;7.40;;;5.50;;
691;SDS011;328;50.086;8.576;2023-04-25T05:32:38;7.50;;;5.50;;
691;SDS011;328;50.086;8.576;2023-04-25T05:35:06;12.13;;;6.13;;
691;SDS011;328;50.086;8.576;2023-04-25T05:37:35;10.83;;;6.37;;
691;SDS011;328;50.086;8.576;2023-04-25T05:40:04;11.03;;;4.70;;
691;SDS011;328;50.086;8.576;2023-04-25T05:42:33;7.57;;;5.10;;
691;SDS011;328;50.086;8.576;2023-04-25T05:45:01;7.57;;;4.40;;
691;SDS011;328;50.086;8.576;2023-04-25T05:47:30;11.13;;;6.03;;
691;SDS011;328;50.086;8.576;2023-04-25T05:49:58;6.00;;;4.67;;
691;SDS011;328;50.086;8.576;2023-04-25T05:52:25;6.83;;;5.27;;
691;SDS011;328;50.086;8.576;2023-04-25T05:54:52;6.30;;;3.80;;
691;SDS011;328;50.086;8.576;2023-04-25T05:57:22;8.13;;;3.97;;
691;SDS011;328;50.086;8.576;2023-04-25T05:59:52;6.17;;;3.93;;
691;SDS011;328;50.086;8.576;2023-04-25T06:02:20;6.67;;;4.83;;
691;SDS011;328;50.086;8.576;2023-04-25T06:04:49;5.53;;;4.10;;
691;SDS011;328;50.086;8.576;2023-04-25T06:07:17;6.83;;;4.40;;
691;SDS011;328;50.086;8.576;2023-04-25T06:09:45;11.20;;;4.57;;
691;SDS011;328;50.086;8.576;2023-04-25T06:12:13;7.37;;;4.47;;
691;SDS011;328;50.086;8.576;2023-04-25T06:14:41;7.50;;;4.23;;
691;SDS011;328;50.086;8.576;2023-04-25T06:17:09;7.17;;;4.40;;
691;SDS011;328;50.086;8.576;2023-04-25T06:19:36;6.47;;;3.87;;
691;SDS011;328;50.086;8.576;2023-04-25T06:22:04;4.63;;;3.60;;
691;SDS011;328;50.086;8.576;2023-04-25T06:24:33;7.73;;;4.40;;
691;SDS011;328;50.086;8.576;2023-04-25T06:27:00;9.80;;;4.10;;
691;SDS011;328;50.086;8.576;2023-04-25T06:29:28;5.30;;;3.63;;
691;SDS011;328;50.086;8.576;2023-04-25T06:31:57;4.87;;;3.70;;
691;SDS011;328;50.086;8.576;2023-04-25T06:34:24;6.13;;;3.70;;
691;SDS011;328;50.086;8.576;2023-04-25T06:36:52;5.87;;;3.57;;
691;SDS011;328;50.086;8.576;2023-04-25T06:39:19;6.13;;;3.10;;
691;SDS011;328;50.086;8.576;2023-04-25T06:41:49;4.77;;;4.10;;
691;SDS011;328;50.086;8.576;2023-04-25T06:44:16;5.70;;;2.80;;
691;SDS011;328;50.086;8.576;2023-04-25T06:46:44;6.70;;;3.33;;
691;SDS011;328;50.086;8.576;2023-04-25T06:49:13;6.10;;;3.50;;
691;SDS011;328;50.086;8.576;2023-04-25T06:51:40;5.03;;;3.33;;
691;SDS011;328;50.086;8.576;2023-04-25T06:54:08;7.23;;;3.17;;
691;SDS011;328;50.086;8.576;2023-04-25T06:56:35;5.93;;;3.17;;
691;SDS011;328;50.086;8.576;2023-04-25T06:59:03;4.90;;;3.40;;
691;SDS011;328;50.086;8.576;2023-04-25T07:01:30;3.83;;;2.70;;
691;SDS011;328;50.086;8.576;2023-04-25T07:03:58;4.33;;;3.17;;
691;SDS011;328;50.086;8.576;2023-04-25T07:06:27;4.67;;;2.70;;
691;SDS011;328;50.086;8.576;2023-04-25T07:08:55;3.43;;;2.87;;
691;SDS011;328;50.086;8.576;2023-04-25T07:11:22;4.20;;;2.67;;
691;SDS011;328;50.086;8.576;2023-04-25T07:13:50;5.87;;;2.77;;
691;SDS011;328;50.086;8.576;2023-04-25T07:16:17;8.33;;;3.40;;
691;SDS011;328;50.086;8.576;2023-04-25T07:18:45;5.33;;;2.80;;
691;SDS011;328;50.086;8.576;2023-04-25T07:21:12;4.23;;;2.40;;
691;SDS011;328;50.086;8.576;2023-04-25T07:23:41;6.33;;;2.57;;
691;SDS011;328;50.086;8.576;2023-04-25T07:26:08;8.00;;;3.33;;
691;SDS011;328;50.086;8.576;2023-04-25T07:28:36;4.70;;;3.00;;
691;SDS011;328;50.086;8.576;2023-04-25T07:31:03;7.33;;;3.30;;
691;SDS011;328;50.086;8.576;2023-04-25T07:33:31;5.73;;;2.97;;
691;SDS011;328;50.086;8.576;2023-04-25T07:35:58;4.30;;;2.73;;
691;SDS011;328;50.086;8.576;2023-04-25T07:38:26;4.23;;;2.57;;
691;SDS011;328;50.086;8.576;2023-04-25T07:40:55;4.93;;;2.80;;
691;SDS011;328;50.086;8.576;2023-04-25T07:43:22;3.80;;;2.20;;
691;SDS011;328;50.086;8.576;2023-04-25T07:45:50;3.43;;;2.37;;
691;SDS011;328;50.086;8.576;2023-04-25T07:48:18;3.67;;;2.53;;
691;SDS011;328;50.086;8.576;2023-04-25T07:50:45;4.10;;;2.73;;
691;SDS011;328;50.086;8.576;2023-04-25T07:53:13;3.93;;;2.30;;
691;SDS011;328;50.086;8.576;2023-04-25T07:55:41;3.77;;;2.30;;
691;SDS011;328;50.086;8.576;2023-04-25T07:58:11;6.30;;;2.60;;
691;SDS011;328;50.086;8.576;2023-04-25T08:00:38;2.90;;;2.17;;
691;SDS011;328;50.086;8.576;2023-04-25T08:03:09;4.37;;;2.20;;
691;SDS011;328;50.086;8.576;2023-04-25T08:05:37;6.03;;;2.80;;
691;SDS011;328;50.086;8.576;2023-04-25T08:08:04;8.20;;;2.07;;
691;SDS011;328;50.086;8.576;2023-04-25T08:10:32;3.77;;;2.43;;
691;SDS011;328;50.086;8.576;2023-04-25T08:13:00;5.10;;;2.00;;
691;SDS011;328;50.086;8.576;2023-04-25T08:15:29;3.87;;;2.10;;
691;SDS011;328;50.086;8.576;2023-04-25T08:17:57;3.77;;;2.17;;
691;SDS011;328;50.086;8.576;2023-04-25T08:20:25;2.77;;;2.03;;
691;SDS011;328;50.086;8.576;2023-04-25T08:22:53;3.30;;;2.10;;
691;SDS011;328;50.086;8.576;2023-04-25T08:25:20;2.70;;;1.87;;
691;SDS011;328;50.086;8.576;2023-04-25T08:27:48;2.80;;;2.10;;
691;SDS011;328;50.086;8.576;2023-04-25T08:30:15;5.30;;;1.77;;
691;SDS011;328;50.086;8.576;2023-04-25T08:32:44;5.10;;;2.30;;
691;SDS011;328;50.086;8.576;2023-04-25T08:35:11;4.60;;;2.40;;
691;SDS011;328;50.086;8.576;2023-04-25T08:37:39;3.23;;;1.80;;
691;SDS011;328;50.086;8.576;2023-04-25T08:40:07;2.50;;;2.00;;
691;SDS011;328;50.086;8.576;2023-04-25T08:42:39;3.10;;;1.67;;
691;SDS011;328;50.086;8.576;2023-04-25T08:45:08;2.17;;;2.00;;
691;SDS011;328;50.086;8.576;2023-04-25T08:47:37;4.60;;;2.40;;
691;SDS011;328;50.086;8.576;2023-04-25T08:50:07;4.47;;;2.37;;
691;SDS011;328;50.086;8.576;2023-04-25T08:52:36;3.43;;;2.50;;
691;SDS011;328;50.086;8.576;2023-04-25T08:55:04;7.00;;;3.50;;
691;SDS011;328;50.086;8.576;2023-04-25T08:57:34;3.30;;;2.90;;
691;SDS011;328;50.086;8.576;2023-04-25T09:00:02;7.30;;;3.70;;
691;SDS011;328;50.086;8.576;2023-04-25T09:02:31;2.90;;;2.60;;
691;SDS011;328;50.086;8.576;2023-04-25T09:04:59;5.23;;;2.70;;
691;SDS011;328;50.086;8.576;2023-04-25T09:07:28;5.23;;;3.23;;
691;SDS011;328;50.086;8.576;2023-04-25T09:09:56;3.60;;;3.00;;
691;SDS011;328;50.086;8.576;2023-04-25T09:12:25;6.80;;;3.37;;
691;SDS011;328;50.086;8.576;2023-04-25T09:15:01;4.80;;;3.20;;
691;SDS011;328;50.086;8.576;2023-04-25T09:17:30;5.47;;;3.80;;
691;SDS011;328;50.086;8.576;2023-04-25T09:20:04;4.30;;;3.03;;
691;SDS011;328;50.086;8.576;2023-04-25T09:22:35;3.83;;;2.83;;
691;SDS011;328;50.086;8.576;2023-04-25T09:25:03;9.80;;;4.67;;
691;SDS011;328;50.086;8.576;2023-04-25T09:27:35;6.50;;;4.37;;
691;SDS011;328;50.086;8.576;2023-04-25T09:30:03;4.17;;;3.40;;
691;SDS011;328;50.086;8.576;2023-04-25T09:32:31;5.40;;;2.77;;
691;SDS011;328;50.086;8.576;2023-04-25T09:34:59;4.50;;;3.00;;
691;SDS011;328;50.086;8.576;2023-04-25T09:37:27;8.87;;;3.87;;
691;SDS011;328;50.086;8.576;2023-04-25T09:39:57;6.10;;;3.10;;
691;SDS011;328;50.086;8.576;2023-04-25T09:42:29;5.13;;;3.40;;
691;SDS011;328;50.086;8.576;2023-04-25T09:44:58;5.53;;;3.40;;
691;SDS011;328;50.086;8.576;2023-04-25T09:47:27;3.77;;;3.33;;
691;SDS011;328;50.086;8.576;2023-04-25T09:49:55;3.80;;;2.63;;
691;SDS011;328;50.086;8.576;2023-04-25T09:52:23;4.67;;;3.23;;
691;SDS011;328;50.086;8.576;2023-04-25T09:54:52;5.60;;;3.30;;
691;SDS011;328;50.086;8.576;2023-04-25T09:57:21;8.53;;;5.03;;
691;SDS011;328;50.086;8.576;2023-04-25T09:59:50;5.50;;;3.40;;
691;SDS011;328;50.086;8.576;2023-04-25T10:02:20;4.70;;;3.80;;
691;SDS011;328;50.086;8.576;2023-04-25T10:04:51;5.30;;;3.43;;
691;SDS011;328;50.086;8.576;2023-04-25T10:07:22;5.10;;;3.20;;
691;SDS011;328;50.086;8.576;2023-04-25T10:09:53;3.90;;;2.90;;
691;SDS011;328;50.086;8.576;2023-04-25T10:12:23;5.00;;;3.50;;
691;SDS011;328;50.086;8.576;2023-04-25T10:14:51;4.43;;;3.53;;
691;SDS011;328;50.086;8.576;2023-04-25T10:17:20;5.83;;;3.47;;
691;SDS011;328;50.086;8.576;2023-04-25T10:19:48;4.40;;;3.60;;
691;SDS011;328;50.086;8.576;2023-04-25T10:22:17;3.50;;;2.97;;
691;SDS011;328;50.086;8.576;2023-04-25T10:24:45;4.70;;;3.23;;
691;SDS011;328;50.086;8.576;2023-04-25T10:27:13;4.60;;;3.13;;
691;SDS011;328;50.086;8.576;2023-04-25T10:29:42;4.40;;;2.50;;
691;SDS011;328;50.086;8.576;2023-04-25T10:32:10;5.33;;;3.10;;
691;SDS011;328;50.086;8.576;2023-04-25T10:34:38;5.50;;;3.27;;
691;SDS011;328;50.086;8.576;2023-04-25T10:37:10;6.00;;;3.20;;
691;SDS011;328;50.086;8.576;2023-04-25T10:39:38;3.83;;;2.97;;
691;SDS011;328;50.086;8.576;2023-04-25T10:42:06;4.37;;;2.93;;
691;SDS011;328;50.086;8.576;2023-04-25T10:44:35;5.67;;;2.77;;
691;SDS011;328;50.086;8.576;2023-04-25T10:47:06;3.37;;;2.93;;
691;SDS011;328;50.086;8.576;2023-04-25T10:49:35;6.43;;;4.30;;
691;SDS011;328;50.086;8.576;2023-04-25T10:52:11;3.53;;;2.40;;
691;SDS011;328;50.086;8.576;2023-04-25T10:54:40;3.37;;;2.50;;
691;SDS011;328;50.086;8.576;2023-04-25T10:59:58;6.40;;;2.97;;
691;SDS011;328;50.086;8.576;2023-04-25T11:02:28;6.73;;;3.30;;
691;SDS011;328;50.086;8.576;2023-04-25T11:04:56;5.43;;;2.27;;
691;SDS011;328;50.086;8.576;2023-04-25T11:07:26;5.40;;;2.57;;
691;SDS011;328;50.086;8.576;2023-04-25T11:10:00;5.17;;;3.00;;
691;SDS011;328;50.086;8.576;2023-04-25T11:12:29;6.10;;;2.80;;
691;SDS011;328;50.086;8.576;2023-04-25T11:15:00;3.07;;;2.20;;
691;SDS011;328;50.086;8.576;2023-04-25T11:17:30;4.53;;;2.63;;
691;SDS011;328;50.086;8.576;2023-04-25T11:19:57;5.43;;;2.90;;
691;SDS011;328;50.086;8.576;2023-04-25T11:22:26;3.40;;;2.50;;
691;SDS011;328;50.086;8.576;2023-04-25T11:24:54;4.27;;;3.67;;
691;SDS011;328;50.086;8.576;2023-04-25T11:27:21;3.30;;;2.70;;
691;SDS011;328;50.086;8.576;2023-04-25T11:29:50;5.57;;;2.43;;
691;SDS011;328;50.086;8.576;2023-04-25T11:32:18;4.73;;;2.83;;
691;SDS011;328;50.086;8.576;2023-04-25T11:34:52;4.27;;;2.80;;
691;SDS011;328;50.086;8.576;2023-04-25T11:37:19;9.20;;;3.23;;
691;SDS011;328;50.086;8.576;2023-04-25T11:39:47;8.90;;;2.60;;
691;SDS011;328;50.086;8.576;2023-04-25T11:42:15;7.30;;;2.50;;
691;SDS011;328;50.086;8.576;2023-04-25T11:44:42;7.90;;;2.93;;
691;SDS011;328;50.086;8.576;2023-04-25T11:47:10;4.40;;;2.57;;
691;SDS011;328;50.086;8.576;2023-04-25T11:49:38;9.70;;;2.57;;
691;SDS011;328;50.086;8.576;2023-04-25T11:52:07;4.73;;;2.53;;
691;SDS011;328;50.086;8.576;2023-04-25T11:54:35;5.27;;;2.67;;
691;SDS011;328;50.086;8.576;2023-04-25T11:57:03;5.43;;;2.30;;
691;SDS011;328;50.086;8.576;2023-04-25T11:59:31;4.73;;;2.37;;
691;SDS011;328;50.086;8.576;2023-04-25T12:02:07;3.47;;;2.40;;
691;SDS011;328;50.086;8.576;2023-04-25T12:04:35;3.13;;;2.33;;
691;SDS011;328;50.086;8.576;2023-04-25T12:07:04;3.67;;;2.83;;
691;SDS011;328;50.086;8.576;2023-04-25T12:09:33;6.87;;;3.63;;
691;SDS011;328;50.086;8.576;2023-04-25T12:12:01;4.97;;;2.43;;
691;SDS011;328;50.086;8.576;2023-04-25T12:14:30;3.10;;;2.07;;
691;SDS011;328;50.086;8.576;2023-04-25T12:16:59;4.07;;;2.83;;
691;SDS011;328;50.086;8.576;2023-04-25T12:19:31;3.70;;;1.80;;
691;SDS011;328;50.086;8.576;2023-04-25T12:22:00;6.73;;;2.87;;
691;SDS011;328;50.086;8.576;2023-04-25T12:24:29;2.40;;;2.00;;
691;SDS011;328;50.086;8.576;2023-04-25T12:27:00;4.10;;;2.33;;
691;SDS011;328;50.086;8.576;2023-04-25T12:29:29;4.00;;;2.27;;
691;SDS011;328;50.086;8.576;2023-04-25T12:32:14;3.53;;;2.37;;
691;SDS011;328;50.086;8.576;2023-04-25T12:34:41;4.03;;;2.10;;
691;SDS011;328;50.086;8.576;2023-04-25T12:37:09;6.90;;;2.13;;
691;SDS011;328;50.086;8.576;2023-04-25T12:39:37;6.20;;;2.23;;
691;SDS011;328;50.086;8.576;2023-04-25T12:42:06;5.90;;;1.93;;
691;SDS011;328;50.086;8.576;2023-04-25T12:44:37;3.70;;;2.77;;
691;SDS011;328;50.086;8.576;2023-04-25T12:47:05;4.83;;;2.80;;
691;SDS011;328;50.086;8.576;2023-04-25T12:49:32;4.30;;;2.50;;
691;SDS011;328;50.086;8.576;2023-04-25T12:52:00;7.83;;;3.63;;
691;SDS011;328;50.086;8.576;2023-04-25T12:54:28;5.33;;;3.10;;
691;SDS011;328;50.086;8.576;2023-04-25T12:56:55;4.97;;;2.63;;
691;SDS011;328;50.086;8.576;2023-04-25T12:59:24;6.27;;;2.70;;
691;SDS011;328;50.086;8.576;2023-04-25T13:01:52;4.17;;;2.53;;
691;SDS011;328;50.086;8.576;2023-04-25T13:04:20;5.00;;;2.90;;
691;SDS011;328;50.086;8.576;2023-04-25T13:06:48;4.60;;;2.47;;
691;SDS011;328;50.086;8.576;2023-04-25T13:09:15;3.63;;;2.30;;
691;SDS011;328;50.086;8.576;2023-04-25T13:11:43;6.90;;;2.37;;
691;SDS011;328;50.086;8.576;2023-04-25T13:14:11;3.67;;;2.10;;
691;SDS011;328;50.086;8.576;2023-04-25T13:16:40;4.13;;;3.00;;
691;SDS011;328;50.086;8.576;2023-04-25T13:19:07;8.40;;;2.63;;
691;SDS011;328;50.086;8.576;2023-04-25T13:21:37;4.40;;;2.67;;
691;SDS011;328;50.086;8.576;2023-04-25T13:24:05;2.97;;;2.40;;
691;SDS011;328;50.086;8.576;2023-04-25T13:26:33;6.83;;;2.80;;
691;SDS011;328;50.086;8.576;2023-04-25T13:29:00;11.07;;;2.93;;
691;SDS011;328;50.086;8.576;2023-04-25T13:31:29;3.17;;;2.50;;
691;SDS011;328;50.086;8.576;2023-04-25T13:33:59;5.33;;;2.60;;
691;SDS011;328;50.086;8.576;2023-04-25T13:36:27;4.37;;;2.43;;
691;SDS011;328;50.086;8.576;2023-04-25T13:38:55;4.07;;;2.80;;
691;SDS011;328;50.086;8.576;2023-04-25T13:41:22;4.93;;;2.90;;
691;SDS011;328;50.086;8.576;2023-04-25T13:43:50;5.27;;;3.00;;
691;SDS011;328;50.086;8.576;2023-04-25T13:46:18;7.20;;;3.40;;
691;SDS011;328;50.086;8.576;2023-04-25T13:49:07;9.63;;;3.60;;
691;SDS011;328;50.086;8.576;2023-04-25T13:51:38;6.63;;;2.97;;
691;SDS011;328;50.086;8.576;2023-04-25T13:54:06;3.50;;;2.90;;
691;SDS011;328;50.086;8.576;2023-04-25T13:56:33;3.07;;;2.30;;
691;SDS011;328;50.086;8.576;2023-04-25T13:59:01;6.30;;;3.03;;
691;SDS011;328;50.086;8.576;2023-04-25T14:01:29;3.90;;;2.00;;
691;SDS011;328;50.086;8.576;2023-04-25T14:03:57;2.40;;;2.20;;
691;SDS011;328;50.086;8.576;2023-04-25T14:06:26;4.90;;;2.47;;
691;SDS011;328;50.086;8.576;2023-04-25T14:08:54;3.83;;;1.80;;
691;SDS011;328;50.086;8.576;2023-04-25T14:11:22;3.87;;;1.93;;
691;SDS011;328;50.086;8.576;2023-04-25T14:13:49;7.70;;;2.00;;
691;SDS011;328;50.086;8.576;2023-04-25T14:16:18;7.67;;;3.33;;
691;SDS011;328;50.086;8.576;2023-04-25T14:18:45;5.30;;;1.80;;
691;SDS011;328;50.086;8.576;2023-04-25T14:21:13;2.90;;;1.60;;
691;SDS011;328;50.086;8.576;2023-04-25T14:23:42;3.50;;;1.70;;
691;SDS011;328;50.086;8.576;2023-04-25T14:26:09;3.70;;;1.80;;
691;SDS011;328;50.086;8.576;2023-04-25T14:28:38;5.80;;;1.97;;
691;SDS011;328;50.086;8.576;2023-04-25T14:31:06;4.07;;;2.00;;
691;SDS011;328;50.086;8.576;2023-04-25T14:33:33;7.23;;;1.83;;
691;SDS011;328;50.086;8.576;2023-04-25T14:36:01;2.23;;;1.60;;
691;SDS011;328;50.086;8.576;2023-04-25T14:38:29;5.43;;;1.93;;
691;SDS011;328;50.086;8.576;2023-04-25T14:40:58;3.00;;;1.63;;
691;SDS011;328;50.086;8.576;2023-04-25T14:43:25;3.00;;;1.70;;
691;SDS011;328;50.086;8.576;2023-04-25T14:45:53;4.53;;;1.80;;
691;SDS011;328;50.086;8.576;2023-04-25T14:48:23;3.77;;;1.70;;
691;SDS011;328;50.086;8.576;2023-04-25T14:50:51;4.07;;;1.97;;
691;SDS011;328;50.086;8.576;2023-04-25T14:53:19;4.10;;;1.80;;
691;SDS011;328;50.086;8.576;2023-04-25T14:55:46;8.93;;;2.37;;
691;SDS011;328;50.086;8.576;2023-04-25T14:58:16;4.80;;;1.93;;
691;SDS011;328;50.086;8.576;2023-04-25T15:00:43;4.23;;;2.17;;
691;SDS011;328;50.086;8.576;2023-04-25T15:03:11;2.90;;;2.20;;
691;SDS011;328;50.086;8.576;2023-04-25T15:05:39;2.70;;;1.50;;
691;SDS011;328;50.086;8.576;2023-04-25T15:08:08;3.00;;;2.37;;
691;SDS011;328;50.086;8.576;2023-04-25T15:10:36;6.37;;;1.60;;
691;SDS011;328;50.086;8.576;2023-04-25T15:13:04;3.83;;;2.07;;
691;SDS011;328;50.086;8.576;2023-04-25T15:15:32;4.43;;;2.00;;
691;SDS011;328;50.086;8.576;2023-04-25T15:18:00;5.83;;;2.07;;
691;SDS011;328;50.086;8.576;2023-04-25T15:20:28;3.63;;;2.33;;
691;SDS011;328;50.086;8.576;2023-04-25T15:22:55;4.20;;;1.70;;
691;SDS011;328;50.086;8.576;2023-04-25T15:25:23;2.40;;;1.67;;
691;SDS011;328;50.086;8.576;2023-04-25T15:27:51;4.70;;;1.87;;
691;SDS011;328;50.086;8.576;2023-04-25T15:30:19;2.53;;;1.67;;
691;SDS011;328;50.086;8.576;2023-04-25T15:32:48;3.77;;;2.00;;
691;SDS011;328;50.086;8.576;2023-04-25T15:35:16;5.80;;;1.70;;
691;SDS011;328;50.086;8.576;2023-04-25T15:37:43;5.20;;;1.70;;
691;SDS011;328;50.086;8.576;2023-04-25T15:40:14;4.07;;;1.93;;
691;SDS011;328;50.086;8.576;2023-04-25T15:42:43;3.90;;;1.70;;
691;SDS011;328;50.086;8.576;2023-04-25T15:45:13;5.17;;;1.83;;
691;SDS011;328;50.086;8.576;2023-04-25T15:47:43;2.17;;;1.20;;
691;SDS011;328;50.086;8.576;2023-04-25T15:50:12;2.90;;;1.93;;
691;SDS011;328;50.086;8.576;2023-04-25T15:52:41;2.53;;;1.50;;
691;SDS011;328;50.086;8.576;2023-04-25T15:55:09;3.10;;;1.33;;